sensor_id;sensor_type;location;lat;lon;timestamp;P1;durP1;ratioP1;P2;durP2;ratioP2
37609;SDS011;23457;51.966;8.230;2022-10-22T00:01:00;14.63;;;9.38;;
37609;SDS011;23457;51.966;8.230;2022-10-22T00:03:27;15.73;;;11.35;;
37609;SDS011;23457;51.966;8.230;2022-10-22T00:05:54;14.77;;;9.65;;
37609;SDS011;23457;51.966;8.230;2022-10-22T00:08:21;13.82;;;10.52;;
37609;SDS011;23457;51.966;8.230;2022-10-22T00:10:48;16.02;;;10.77;;
37609;SDS011;23457;51.966;8.230;2022-10-22T00:13:15;11.23;;;9.77;;
37609;SDS011;23457;51.966;8.230;2022-10-22T00:15:42;13.35;;;10.00;;
37609;SDS011;23457;51.966;8.230;2022-10-22T00:18:08;11.85;;;10.35;;
37609;SDS011;23457;51.966;8.230;2022-10-22T00:20:35;14.18;;;10.88;;
37609;SDS011;23457;51.966;8.230;2022-10-22T00:23:01;14.05;;;9.95;;
37609;SDS011;23457;51.966;8.230;2022-10-22T00:25:28;12.52;;;10.13;;
37609;SDS011;23457;51.966;8.230;2022-10-22T00:27:56;12.75;;;10.07;;
37609;SDS011;23457;51.966;8.230;2022-10-22T00:30:22;13.38;;;10.20;;
37609;SDS011;23457;51.966;8.230;2022-10-22T00:32:49;11.02;;;9.82;;
37609;SDS011;23457;51.966;8.230;2022-10-22T00:35:15;14.80;;;9.77;;
37609;SDS011;23457;51.966;8.230;2022-10-22T00:37:42;14.13;;;11.05;;
37609;SDS011;23457;51.966;8.230;2022-10-22T00:40:09;12.57;;;10.60;;
37609;SDS011;23457;51.966;8.230;2022-10-22T00:42:36;13.38;;;10.18;;
37609;SDS011;23457;51.966;8.230;2022-10-22T00:47:38;13.75;;;11.75;;
37609;SDS011;23457;51.966;8.230;2022-10-22T00:50:21;13.60;;;10.68;;
37609;SDS011;23457;51.966;8.230;2022-10-22T00:53:03;15.65;;;10.77;;
37609;SDS011;23457;51.966;8.230;2022-10-22T00:55:35;13.50;;;10.48;;
37609;SDS011;23457;51.966;8.230;2022-10-22T00:58:04;15.80;;;9.88;;
37609;SDS011;23457;51.966;8.230;2022-10-22T01:00:30;12.65;;;10.35;;
37609;SDS011;23457;51.966;8.230;2022-10-22T01:02:57;14.10;;;10.88;;
37609;SDS011;23457;51.966;8.230;2022-10-22T01:05:28;12.57;;;9.63;;
37609;SDS011;23457;51.966;8.230;2022-10-22T01:07:58;13.23;;;9.90;;
37609;SDS011;23457;51.966;8.230;2022-10-22T01:13:30;12.00;;;9.90;;
37609;SDS011;23457;51.966;8.230;2022-10-22T01:16:07;11.50;;;10.25;;
37609;SDS011;23457;51.966;8.230;2022-10-22T01:18:46;11.38;;;9.15;;
37609;SDS011;23457;51.966;8.230;2022-10-22T01:22:07;12.95;;;10.18;;
37609;SDS011;23457;51.966;8.230;2022-10-22T01:24:19;15.32;;;12.65;;
37609;SDS011;23457;51.966;8.230;2022-10-22T01:27:31;21.50;;;14.40;;
37609;SDS011;23457;51.966;8.230;2022-10-22T01:30:04;14.98;;;11.60;;
37609;SDS011;23457;51.966;8.230;2022-10-22T01:32:47;12.63;;;10.82;;
37609;SDS011;23457;51.966;8.230;2022-10-22T01:35:18;16.08;;;11.10;;
37609;SDS011;23457;51.966;8.230;2022-10-22T01:37:51;16.15;;;11.38;;
37609;SDS011;23457;51.966;8.230;2022-10-22T01:40:20;15.38;;;10.70;;
37609;SDS011;23457;51.966;8.230;2022-10-22T01:42:58;12.25;;;10.25;;
37609;SDS011;23457;51.966;8.230;2022-10-22T01:45:37;13.98;;;9.95;;
37609;SDS011;23457;51.966;8.230;2022-10-22T01:50:55;16.00;;;10.88;;
37609;SDS011;23457;51.966;8.230;2022-10-22T01:58:57;11.68;;;9.40;;
37609;SDS011;23457;51.966;8.230;2022-10-22T02:01:56;13.02;;;9.55;;
37609;SDS011;23457;51.966;8.230;2022-10-22T02:04:57;13.68;;;10.40;;
37609;SDS011;23457;51.966;8.230;2022-10-22T02:07:30;11.48;;;9.45;;
37609;SDS011;23457;51.966;8.230;2022-10-22T02:10:00;12.45;;;9.35;;
37609;SDS011;23457;51.966;8.230;2022-10-22T02:12:29;12.00;;;9.65;;
37609;SDS011;23457;51.966;8.230;2022-10-22T02:14:57;11.57;;;9.57;;
37609;SDS011;23457;51.966;8.230;2022-10-22T02:17:27;12.15;;;9.70;;
37609;SDS011;23457;51.966;8.230;2022-10-22T02:20:00;10.82;;;9.15;;
37609;SDS011;23457;51.966;8.230;2022-10-22T02:22:48;13.50;;;10.10;;
37609;SDS011;23457;51.966;8.230;2022-10-22T02:25:15;13.10;;;10.18;;
37609;SDS011;23457;51.966;8.230;2022-10-22T02:27:43;14.02;;;9.93;;
37609;SDS011;23457;51.966;8.230;2022-10-22T02:30:17;11.73;;;9.20;;
37609;SDS011;23457;51.966;8.230;2022-10-22T02:32:54;16.85;;;10.70;;
37609;SDS011;23457;51.966;8.230;2022-10-22T02:35:31;13.18;;;11.15;;
37609;SDS011;23457;51.966;8.230;2022-10-22T02:37:59;15.13;;;11.63;;
37609;SDS011;23457;51.966;8.230;2022-10-22T02:40:26;18.83;;;11.93;;
37609;SDS011;23457;51.966;8.230;2022-10-22T02:42:55;17.73;;;10.82;;
37609;SDS011;23457;51.966;8.230;2022-10-22T02:45:22;13.40;;;10.57;;
37609;SDS011;23457;51.966;8.230;2022-10-22T02:47:49;14.65;;;10.15;;
37609;SDS011;23457;51.966;8.230;2022-10-22T02:50:15;17.55;;;9.73;;
37609;SDS011;23457;51.966;8.230;2022-10-22T02:52:42;13.93;;;9.27;;
37609;SDS011;23457;51.966;8.230;2022-10-22T02:55:09;14.15;;;9.20;;
37609;SDS011;23457;51.966;8.230;2022-10-22T02:57:36;15.05;;;10.10;;
37609;SDS011;23457;51.966;8.230;2022-10-22T03:00:04;11.65;;;9.07;;
37609;SDS011;23457;51.966;8.230;2022-10-22T03:02:31;13.65;;;8.77;;
37609;SDS011;23457;51.966;8.230;2022-10-22T03:04:58;11.32;;;9.25;;
37609;SDS011;23457;51.966;8.230;2022-10-22T03:07:25;11.43;;;8.73;;
37609;SDS011;23457;51.966;8.230;2022-10-22T03:09:51;12.77;;;8.80;;
37609;SDS011;23457;51.966;8.230;2022-10-22T03:12:18;10.05;;;8.93;;
37609;SDS011;23457;51.966;8.230;2022-10-22T03:14:45;8.90;;;8.00;;
37609;SDS011;23457;51.966;8.230;2022-10-22T03:17:12;9.70;;;8.07;;
37609;SDS011;23457;51.966;8.230;2022-10-22T03:19:38;12.15;;;9.55;;
37609;SDS011;23457;51.966;8.230;2022-10-22T03:22:06;10.35;;;9.13;;
37609;SDS011;23457;51.966;8.230;2022-10-22T03:24:47;12.10;;;9.13;;
37609;SDS011;23457;51.966;8.230;2022-10-22T03:27:17;10.02;;;8.68;;
37609;SDS011;23457;51.966;8.230;2022-10-22T03:29:46;13.23;;;10.07;;
37609;SDS011;23457;51.966;8.230;2022-10-22T03:32:16;13.25;;;10.00;;
37609;SDS011;23457;51.966;8.230;2022-10-22T03:34:42;12.45;;;9.52;;
37609;SDS011;23457;51.966;8.230;2022-10-22T03:37:09;16.67;;;9.68;;
37609;SDS011;23457;51.966;8.230;2022-10-22T03:39:36;15.00;;;10.60;;
37609;SDS011;23457;51.966;8.230;2022-10-22T03:42:04;12.70;;;10.05;;
37609;SDS011;23457;51.966;8.230;2022-10-22T03:44:32;13.57;;;10.40;;
37609;SDS011;23457;51.966;8.230;2022-10-22T03:47:00;19.27;;;11.13;;
37609;SDS011;23457;51.966;8.230;2022-10-22T03:49:28;16.58;;;12.60;;
37609;SDS011;23457;51.966;8.230;2022-10-22T03:51:54;16.13;;;11.82;;
37609;SDS011;23457;51.966;8.230;2022-10-22T03:54:21;22.20;;;12.05;;
37609;SDS011;23457;51.966;8.230;2022-10-22T03:56:48;18.33;;;11.32;;
37609;SDS011;23457;51.966;8.230;2022-10-22T03:59:15;18.30;;;11.45;;
37609;SDS011;23457;51.966;8.230;2022-10-22T04:01:42;17.08;;;11.77;;
37609;SDS011;23457;51.966;8.230;2022-10-22T04:04:08;16.50;;;11.63;;
37609;SDS011;23457;51.966;8.230;2022-10-22T04:06:35;14.00;;;11.25;;
37609;SDS011;23457;51.966;8.230;2022-10-22T04:09:02;15.27;;;10.95;;
37609;SDS011;23457;51.966;8.230;2022-10-22T04:11:29;15.73;;;11.55;;
37609;SDS011;23457;51.966;8.230;2022-10-22T04:13:55;13.18;;;10.55;;
37609;SDS011;23457;51.966;8.230;2022-10-22T04:16:22;15.13;;;10.80;;
37609;SDS011;23457;51.966;8.230;2022-10-22T04:18:53;14.27;;;10.73;;
37609;SDS011;23457;51.966;8.230;2022-10-22T04:21:20;15.93;;;11.30;;
37609;SDS011;23457;51.966;8.230;2022-10-22T04:23:47;16.92;;;11.48;;
37609;SDS011;23457;51.966;8.230;2022-10-22T04:26:17;13.07;;;10.05;;
37609;SDS011;23457;51.966;8.230;2022-10-22T04:28:45;23.65;;;11.32;;
37609;SDS011;23457;51.966;8.230;2022-10-22T04:31:14;18.63;;;11.38;;
37609;SDS011;23457;51.966;8.230;2022-10-22T04:33:45;16.90;;;10.80;;
37609;SDS011;23457;51.966;8.230;2022-10-22T04:36:13;16.77;;;11.02;;
37609;SDS011;23457;51.966;8.230;2022-10-22T04:38:43;15.70;;;11.32;;
37609;SDS011;23457;51.966;8.230;2022-10-22T04:41:15;11.67;;;9.57;;
37609;SDS011;23457;51.966;8.230;2022-10-22T04:43:46;16.10;;;10.48;;
37609;SDS011;23457;51.966;8.230;2022-10-22T04:46:14;14.10;;;10.07;;
37609;SDS011;23457;51.966;8.230;2022-10-22T04:48:43;17.67;;;11.77;;
37609;SDS011;23457;51.966;8.230;2022-10-22T04:51:11;15.75;;;11.40;;
37609;SDS011;23457;51.966;8.230;2022-10-22T04:53:40;14.27;;;9.55;;
37609;SDS011;23457;51.966;8.230;2022-10-22T04:58:49;13.43;;;10.13;;
37609;SDS011;23457;51.966;8.230;2022-10-22T05:03:46;14.05;;;9.48;;
37609;SDS011;23457;51.966;8.230;2022-10-22T05:06:14;12.00;;;9.13;;
37609;SDS011;23457;51.966;8.230;2022-10-22T05:08:41;11.30;;;9.63;;
37609;SDS011;23457;51.966;8.230;2022-10-22T05:11:18;13.02;;;9.40;;
37609;SDS011;23457;51.966;8.230;2022-10-22T05:13:47;12.35;;;9.13;;
37609;SDS011;23457;51.966;8.230;2022-10-22T05:16:14;15.27;;;9.18;;
37609;SDS011;23457;51.966;8.230;2022-10-22T05:18:42;13.80;;;9.55;;
37609;SDS011;23457;51.966;8.230;2022-10-22T05:21:11;16.15;;;9.20;;
37609;SDS011;23457;51.966;8.230;2022-10-22T05:23:39;12.40;;;9.70;;
37609;SDS011;23457;51.966;8.230;2022-10-22T05:26:07;14.20;;;9.25;;
37609;SDS011;23457;51.966;8.230;2022-10-22T05:28:35;15.40;;;10.50;;
37609;SDS011;23457;51.966;8.230;2022-10-22T05:31:02;13.18;;;9.18;;
37609;SDS011;23457;51.966;8.230;2022-10-22T05:33:29;12.88;;;9.73;;
37609;SDS011;23457;51.966;8.230;2022-10-22T05:35:58;13.43;;;9.70;;
37609;SDS011;23457;51.966;8.230;2022-10-22T05:38:25;13.40;;;9.95;;
37609;SDS011;23457;51.966;8.230;2022-10-22T05:41:14;16.80;;;9.73;;
37609;SDS011;23457;51.966;8.230;2022-10-22T05:43:40;14.23;;;10.18;;
37609;SDS011;23457;51.966;8.230;2022-10-22T05:46:08;16.23;;;11.25;;
37609;SDS011;23457;51.966;8.230;2022-10-22T05:48:37;11.75;;;10.13;;
37609;SDS011;23457;51.966;8.230;2022-10-22T05:51:04;15.07;;;10.98;;
37609;SDS011;23457;51.966;8.230;2022-10-22T05:53:33;13.88;;;11.88;;
37609;SDS011;23457;51.966;8.230;2022-10-22T05:56:01;14.60;;;11.13;;
37609;SDS011;23457;51.966;8.230;2022-10-22T05:58:29;15.25;;;10.57;;
37609;SDS011;23457;51.966;8.230;2022-10-22T06:01:00;16.15;;;10.23;;
37609;SDS011;23457;51.966;8.230;2022-10-22T06:03:28;14.50;;;10.18;;
37609;SDS011;23457;51.966;8.230;2022-10-22T06:06:18;16.05;;;10.98;;
37609;SDS011;23457;51.966;8.230;2022-10-22T06:08:46;14.93;;;10.32;;
37609;SDS011;23457;51.966;8.230;2022-10-22T06:11:15;15.90;;;10.65;;
37609;SDS011;23457;51.966;8.230;2022-10-22T06:13:43;13.88;;;10.55;;
37609;SDS011;23457;51.966;8.230;2022-10-22T06:16:11;16.45;;;10.80;;
37609;SDS011;23457;51.966;8.230;2022-10-22T06:18:38;14.68;;;9.73;;
37609;SDS011;23457;51.966;8.230;2022-10-22T06:21:09;12.75;;;9.05;;
37609;SDS011;23457;51.966;8.230;2022-10-22T06:23:38;13.45;;;10.10;;
37609;SDS011;23457;51.966;8.230;2022-10-22T06:26:05;16.45;;;10.35;;
37609;SDS011;23457;51.966;8.230;2022-10-22T06:28:33;14.65;;;11.23;;
37609;SDS011;23457;51.966;8.230;2022-10-22T06:31:00;16.40;;;10.57;;
37609;SDS011;23457;51.966;8.230;2022-10-22T06:33:28;18.73;;;12.38;;
37609;SDS011;23457;51.966;8.230;2022-10-22T06:36:07;13.48;;;10.60;;
37609;SDS011;23457;51.966;8.230;2022-10-22T06:38:38;19.25;;;10.88;;
37609;SDS011;23457;51.966;8.230;2022-10-22T06:41:07;17.83;;;11.48;;
37609;SDS011;23457;51.966;8.230;2022-10-22T06:43:35;17.95;;;11.80;;
37609;SDS011;23457;51.966;8.230;2022-10-22T06:46:02;14.25;;;11.57;;
37609;SDS011;23457;51.966;8.230;2022-10-22T06:48:32;17.67;;;10.27;;
37609;SDS011;23457;51.966;8.230;2022-10-22T06:51:06;15.35;;;10.93;;
37609;SDS011;23457;51.966;8.230;2022-10-22T06:53:35;12.68;;;10.07;;
37609;SDS011;23457;51.966;8.230;2022-10-22T06:56:06;15.48;;;10.82;;
37609;SDS011;23457;51.966;8.230;2022-10-22T06:58:34;15.45;;;10.60;;
37609;SDS011;23457;51.966;8.230;2022-10-22T07:01:11;17.17;;;10.85;;
37609;SDS011;23457;51.966;8.230;2022-10-22T07:03:40;16.92;;;10.88;;
37609;SDS011;23457;51.966;8.230;2022-10-22T07:06:08;15.10;;;11.20;;
37609;SDS011;23457;51.966;8.230;2022-10-22T07:08:36;14.38;;;10.10;;
37609;SDS011;23457;51.966;8.230;2022-10-22T07:13:36;19.13;;;11.00;;
37609;SDS011;23457;51.966;8.230;2022-10-22T07:16:03;17.83;;;11.85;;
37609;SDS011;23457;51.966;8.230;2022-10-22T07:18:31;17.33;;;10.68;;
37609;SDS011;23457;51.966;8.230;2022-10-22T07:20:58;29.60;;;12.07;;
37609;SDS011;23457;51.966;8.230;2022-10-22T07:23:26;16.25;;;11.85;;
37609;SDS011;23457;51.966;8.230;2022-10-22T07:25:52;29.70;;;12.40;;
37609;SDS011;23457;51.966;8.230;2022-10-22T07:28:23;20.27;;;11.35;;
37609;SDS011;23457;51.966;8.230;2022-10-22T07:30:50;18.75;;;11.38;;
37609;SDS011;23457;51.966;8.230;2022-10-22T07:33:16;17.23;;;12.63;;
37609;SDS011;23457;51.966;8.230;2022-10-22T07:35:43;16.05;;;10.88;;
37609;SDS011;23457;51.966;8.230;2022-10-22T07:38:10;17.30;;;11.75;;
37609;SDS011;23457;51.966;8.230;2022-10-22T07:40:37;17.17;;;11.98;;
37609;SDS011;23457;51.966;8.230;2022-10-22T07:43:05;17.10;;;12.60;;
37609;SDS011;23457;51.966;8.230;2022-10-22T07:45:32;15.07;;;12.15;;
37609;SDS011;23457;51.966;8.230;2022-10-22T07:47:59;18.98;;;12.85;;
37609;SDS011;23457;51.966;8.230;2022-10-22T07:50:26;19.58;;;13.00;;
37609;SDS011;23457;51.966;8.230;2022-10-22T07:52:52;20.88;;;12.90;;
37609;SDS011;23457;51.966;8.230;2022-10-22T07:55:23;21.58;;;12.80;;
37609;SDS011;23457;51.966;8.230;2022-10-22T07:57:50;18.63;;;13.05;;
37609;SDS011;23457;51.966;8.230;2022-10-22T08:00:17;21.73;;;13.32;;
37609;SDS011;23457;51.966;8.230;2022-10-22T08:02:48;18.08;;;12.55;;
37609;SDS011;23457;51.966;8.230;2022-10-22T08:05:15;17.27;;;12.45;;
37609;SDS011;23457;51.966;8.230;2022-10-22T08:07:41;18.27;;;11.27;;
37609;SDS011;23457;51.966;8.230;2022-10-22T08:10:09;19.65;;;11.70;;
37609;SDS011;23457;51.966;8.230;2022-10-22T08:12:37;18.70;;;11.90;;
37609;SDS011;23457;51.966;8.230;2022-10-22T08:15:05;16.10;;;12.60;;
37609;SDS011;23457;51.966;8.230;2022-10-22T08:17:32;15.05;;;11.00;;
37609;SDS011;23457;51.966;8.230;2022-10-22T08:19:58;15.63;;;11.50;;
37609;SDS011;23457;51.966;8.230;2022-10-22T08:22:25;24.08;;;11.57;;
37609;SDS011;23457;51.966;8.230;2022-10-22T08:24:52;15.50;;;11.38;;
37609;SDS011;23457;51.966;8.230;2022-10-22T08:27:18;16.65;;;11.90;;
37609;SDS011;23457;51.966;8.230;2022-10-22T08:29:45;24.30;;;11.65;;
37609;SDS011;23457;51.966;8.230;2022-10-22T08:32:12;19.73;;;11.90;;
37609;SDS011;23457;51.966;8.230;2022-10-22T08:34:39;19.27;;;11.88;;
37609;SDS011;23457;51.966;8.230;2022-10-22T08:37:05;16.15;;;11.68;;
37609;SDS011;23457;51.966;8.230;2022-10-22T08:39:34;16.50;;;11.45;;
37609;SDS011;23457;51.966;8.230;2022-10-22T08:50:04;24.95;;;13.45;;
37609;SDS011;23457;51.966;8.230;2022-10-22T08:52:34;19.60;;;14.18;;
37609;SDS011;23457;51.966;8.230;2022-10-22T08:55:08;19.30;;;13.48;;
37609;SDS011;23457;51.966;8.230;2022-10-22T09:08:09;15.07;;;9.43;;
37609;SDS011;23457;51.966;8.230;2022-10-22T09:10:39;15.18;;;7.13;;
37609;SDS011;23457;51.966;8.230;2022-10-22T09:13:12;14.77;;;5.78;;
37609;SDS011;23457;51.966;8.230;2022-10-22T09:16:18;18.08;;;5.80;;
37609;SDS011;23457;51.966;8.230;2022-10-22T09:21:32;14.82;;;4.32;;
37609;SDS011;23457;51.966;8.230;2022-10-22T09:24:40;14.10;;;4.57;;
37609;SDS011;23457;51.966;8.230;2022-10-22T09:27:15;12.32;;;4.45;;
37609;SDS011;23457;51.966;8.230;2022-10-22T09:29:46;14.95;;;4.00;;
37609;SDS011;23457;51.966;8.230;2022-10-22T09:32:14;15.38;;;4.18;;
37609;SDS011;23457;51.966;8.230;2022-10-22T09:34:46;17.02;;;3.50;;
37609;SDS011;23457;51.966;8.230;2022-10-22T09:37:15;13.52;;;3.40;;
37609;SDS011;23457;51.966;8.230;2022-10-22T09:39:44;9.55;;;3.45;;
37609;SDS011;23457;51.966;8.230;2022-10-22T09:42:16;10.57;;;3.00;;
37609;SDS011;23457;51.966;8.230;2022-10-22T09:44:52;10.85;;;3.13;;
37609;SDS011;23457;51.966;8.230;2022-10-22T09:50:25;13.23;;;3.05;;
37609;SDS011;23457;51.966;8.230;2022-10-22T09:53:10;12.18;;;3.03;;
37609;SDS011;23457;51.966;8.230;2022-10-22T09:55:56;8.00;;;2.78;;
37609;SDS011;23457;51.966;8.230;2022-10-22T09:58:25;10.85;;;3.03;;
37609;SDS011;23457;51.966;8.230;2022-10-22T10:00:56;10.32;;;2.50;;
37609;SDS011;23457;51.966;8.230;2022-10-22T10:03:25;9.10;;;2.80;;
37609;SDS011;23457;51.966;8.230;2022-10-22T10:05:56;11.65;;;2.60;;
37609;SDS011;23457;51.966;8.230;2022-10-22T10:08:31;12.82;;;2.50;;
37609;SDS011;23457;51.966;8.230;2022-10-22T10:25:52;8.63;;;2.33;;
37609;SDS011;23457;51.966;8.230;2022-10-22T10:30:56;14.93;;;2.50;;
37609;SDS011;23457;51.966;8.230;2022-10-22T10:39:44;7.82;;;2.40;;
37609;SDS011;23457;51.966;8.230;2022-10-22T10:42:23;14.35;;;2.90;;
37609;SDS011;23457;51.966;8.230;2022-10-22T10:45:08;8.98;;;2.70;;
37609;SDS011;23457;51.966;8.230;2022-10-22T10:50:28;6.97;;;1.95;;
37609;SDS011;23457;51.966;8.230;2022-10-22T10:53:09;8.05;;;2.28;;
37609;SDS011;23457;51.966;8.230;2022-10-22T10:58:56;8.65;;;2.35;;
37609;SDS011;23457;51.966;8.230;2022-10-22T11:01:37;10.80;;;2.65;;
37609;SDS011;23457;51.966;8.230;2022-10-22T11:06:49;8.82;;;2.22;;
37609;SDS011;23457;51.966;8.230;2022-10-22T11:09:38;13.13;;;2.42;;
37609;SDS011;23457;51.966;8.230;2022-10-22T11:12:13;14.05;;;2.78;;
37609;SDS011;23457;51.966;8.230;2022-10-22T11:17:48;10.27;;;3.00;;
37609;SDS011;23457;51.966;8.230;2022-10-22T11:20:21;15.63;;;2.97;;
37609;SDS011;23457;51.966;8.230;2022-10-22T11:23:00;9.32;;;2.38;;
37609;SDS011;23457;51.966;8.230;2022-10-22T11:25:46;9.55;;;2.17;;
37609;SDS011;23457;51.966;8.230;2022-10-22T11:31:12;9.50;;;2.38;;
37609;SDS011;23457;51.966;8.230;2022-10-22T11:33:44;10.82;;;2.35;;
37609;SDS011;23457;51.966;8.230;2022-10-22T11:36:40;9.70;;;2.55;;
37609;SDS011;23457;51.966;8.230;2022-10-22T11:39:13;10.18;;;2.55;;
37609;SDS011;23457;51.966;8.230;2022-10-22T11:42:02;8.48;;;2.08;;
37609;SDS011;23457;51.966;8.230;2022-10-22T11:44:31;14.18;;;2.60;;
37609;SDS011;23457;51.966;8.230;2022-10-22T11:47:17;10.85;;;2.85;;
37609;SDS011;23457;51.966;8.230;2022-10-22T11:50:02;10.32;;;2.75;;
37609;SDS011;23457;51.966;8.230;2022-10-22T11:52:58;13.15;;;2.30;;
37609;SDS011;23457;51.966;8.230;2022-10-22T12:08:44;6.20;;;2.50;;
37609;SDS011;23457;51.966;8.230;2022-10-22T12:16:24;10.82;;;2.28;;
37609;SDS011;23457;51.966;8.230;2022-10-22T12:21:52;10.38;;;3.15;;
37609;SDS011;23457;51.966;8.230;2022-10-22T12:24:22;9.07;;;1.88;;
37609;SDS011;23457;51.966;8.230;2022-10-22T12:26:51;5.85;;;1.70;;
37609;SDS011;23457;51.966;8.230;2022-10-22T12:29:19;6.85;;;1.70;;
37609;SDS011;23457;51.966;8.230;2022-10-22T12:31:48;6.88;;;1.65;;
37609;SDS011;23457;51.966;8.230;2022-10-22T12:34:17;10.50;;;2.28;;
37609;SDS011;23457;51.966;8.230;2022-10-22T12:36:47;7.68;;;2.38;;
37609;SDS011;23457;51.966;8.230;2022-10-22T12:39:18;6.80;;;1.60;;
37609;SDS011;23457;51.966;8.230;2022-10-22T12:41:46;9.77;;;1.85;;
37609;SDS011;23457;51.966;8.230;2022-10-22T12:44:14;8.05;;;1.65;;
37609;SDS011;23457;51.966;8.230;2022-10-22T12:46:43;8.07;;;1.60;;
37609;SDS011;23457;51.966;8.230;2022-10-22T12:49:14;8.43;;;2.33;;
37609;SDS011;23457;51.966;8.230;2022-10-22T12:51:44;9.35;;;1.98;;
37609;SDS011;23457;51.966;8.230;2022-10-22T12:56:48;8.98;;;1.92;;
37609;SDS011;23457;51.966;8.230;2022-10-22T12:59:28;4.72;;;1.23;;
37609;SDS011;23457;51.966;8.230;2022-10-22T13:02:22;8.40;;;1.83;;
37609;SDS011;23457;51.966;8.230;2022-10-22T13:05:12;5.53;;;1.42;;
37609;SDS011;23457;51.966;8.230;2022-10-22T13:07:54;7.55;;;1.42;;
37609;SDS011;23457;51.966;8.230;2022-10-22T13:10:31;6.22;;;1.70;;
37609;SDS011;23457;51.966;8.230;2022-10-22T13:13:00;7.55;;;1.50;;
37609;SDS011;23457;51.966;8.230;2022-10-22T13:18:05;9.48;;;1.80;;
37609;SDS011;23457;51.966;8.230;2022-10-22T13:24:21;8.18;;;1.58;;
37609;SDS011;23457;51.966;8.230;2022-10-22T13:26:49;7.03;;;1.45;;
37609;SDS011;23457;51.966;8.230;2022-10-22T13:29:19;6.18;;;1.50;;
37609;SDS011;23457;51.966;8.230;2022-10-22T13:31:51;13.30;;;2.38;;
37609;SDS011;23457;51.966;8.230;2022-10-22T13:34:20;8.75;;;2.00;;
37609;SDS011;23457;51.966;8.230;2022-10-22T13:39:19;10.45;;;2.35;;
37609;SDS011;23457;51.966;8.230;2022-10-22T13:41:48;9.70;;;2.17;;
37609;SDS011;23457;51.966;8.230;2022-10-22T13:44:16;7.28;;;2.20;;
37609;SDS011;23457;51.966;8.230;2022-10-22T13:46:44;8.68;;;1.83;;
37609;SDS011;23457;51.966;8.230;2022-10-22T13:49:13;10.40;;;2.38;;
37609;SDS011;23457;51.966;8.230;2022-10-22T13:51:43;5.97;;;1.77;;
37609;SDS011;23457;51.966;8.230;2022-10-22T13:54:14;11.25;;;2.25;;
37609;SDS011;23457;51.966;8.230;2022-10-22T13:56:45;5.82;;;1.80;;
37609;SDS011;23457;51.966;8.230;2022-10-22T13:59:13;17.02;;;2.53;;
37609;SDS011;23457;51.966;8.230;2022-10-22T14:01:45;8.32;;;2.33;;
37609;SDS011;23457;51.966;8.230;2022-10-22T14:04:11;10.98;;;3.13;;
37609;SDS011;23457;51.966;8.230;2022-10-22T14:06:40;11.18;;;2.60;;
37609;SDS011;23457;51.966;8.230;2022-10-22T14:09:09;9.88;;;2.47;;
37609;SDS011;23457;51.966;8.230;2022-10-22T14:11:39;7.30;;;2.58;;
37609;SDS011;23457;51.966;8.230;2022-10-22T14:14:06;9.10;;;3.20;;
37609;SDS011;23457;51.966;8.230;2022-10-22T14:16:34;5.68;;;2.28;;
37609;SDS011;23457;51.966;8.230;2022-10-22T14:19:02;6.85;;;2.58;;
37609;SDS011;23457;51.966;8.230;2022-10-22T14:21:34;10.98;;;2.58;;
37609;SDS011;23457;51.966;8.230;2022-10-22T14:24:03;10.93;;;2.47;;
37609;SDS011;23457;51.966;8.230;2022-10-22T14:26:35;10.60;;;2.83;;
37609;SDS011;23457;51.966;8.230;2022-10-22T14:29:01;6.82;;;2.17;;
37609;SDS011;23457;51.966;8.230;2022-10-22T14:31:37;9.65;;;3.08;;
37609;SDS011;23457;51.966;8.230;2022-10-22T14:34:11;10.30;;;2.90;;
37609;SDS011;23457;51.966;8.230;2022-10-22T14:36:39;13.07;;;2.95;;
37609;SDS011;23457;51.966;8.230;2022-10-22T14:41:35;14.73;;;3.03;;
37609;SDS011;23457;51.966;8.230;2022-10-22T14:44:02;9.82;;;2.50;;
37609;SDS011;23457;51.966;8.230;2022-10-22T14:46:29;9.85;;;2.35;;
37609;SDS011;23457;51.966;8.230;2022-10-22T14:48:56;10.68;;;2.03;;
37609;SDS011;23457;51.966;8.230;2022-10-22T14:51:22;6.65;;;2.03;;
37609;SDS011;23457;51.966;8.230;2022-10-22T14:53:49;9.10;;;2.70;;
37609;SDS011;23457;51.966;8.230;2022-10-22T14:56:17;11.93;;;2.17;;
37609;SDS011;23457;51.966;8.230;2022-10-22T14:58:47;9.00;;;1.80;;
37609;SDS011;23457;51.966;8.230;2022-10-22T15:01:15;8.82;;;2.50;;
37609;SDS011;23457;51.966;8.230;2022-10-22T15:03:41;7.22;;;2.13;;
37609;SDS011;23457;51.966;8.230;2022-10-22T15:06:08;10.90;;;1.50;;
37609;SDS011;23457;51.966;8.230;2022-10-22T15:08:35;7.47;;;1.23;;
37609;SDS011;23457;51.966;8.230;2022-10-22T15:11:03;6.97;;;1.70;;
37609;SDS011;23457;51.966;8.230;2022-10-22T15:13:32;12.57;;;2.08;;
37609;SDS011;23457;51.966;8.230;2022-10-22T15:15:59;8.05;;;2.10;;
37609;SDS011;23457;51.966;8.230;2022-10-22T15:18:26;9.80;;;1.80;;
37609;SDS011;23457;51.966;8.230;2022-10-22T15:20:58;6.57;;;1.55;;
37609;SDS011;23457;51.966;8.230;2022-10-22T15:23:26;8.20;;;1.50;;
37609;SDS011;23457;51.966;8.230;2022-10-22T15:25:53;6.43;;;1.30;;
37609;SDS011;23457;51.966;8.230;2022-10-22T15:28:20;9.13;;;1.60;;
37609;SDS011;23457;51.966;8.230;2022-10-22T15:30:51;5.57;;;1.75;;
37609;SDS011;23457;51.966;8.230;2022-10-22T15:33:19;5.68;;;1.23;;
37609;SDS011;23457;51.966;8.230;2022-10-22T15:35:46;6.18;;;1.30;;
37609;SDS011;23457;51.966;8.230;2022-10-22T15:38:13;6.68;;;1.25;;
37609;SDS011;23457;51.966;8.230;2022-10-22T15:40:42;9.48;;;1.55;;
37609;SDS011;23457;51.966;8.230;2022-10-22T15:43:09;6.72;;;1.30;;
37609;SDS011;23457;51.966;8.230;2022-10-22T15:45:36;11.05;;;1.77;;
37609;SDS011;23457;51.966;8.230;2022-10-22T15:48:04;6.15;;;1.55;;
37609;SDS011;23457;51.966;8.230;2022-10-22T15:50:31;11.48;;;1.60;;
37609;SDS011;23457;51.966;8.230;2022-10-22T15:53:02;6.00;;;1.42;;
37609;SDS011;23457;51.966;8.230;2022-10-22T15:55:28;6.25;;;1.38;;
37609;SDS011;23457;51.966;8.230;2022-10-22T15:57:55;8.38;;;2.65;;
37609;SDS011;23457;51.966;8.230;2022-10-22T16:00:27;13.23;;;4.97;;
37609;SDS011;23457;51.966;8.230;2022-10-22T16:02:54;17.35;;;6.85;;
37609;SDS011;23457;51.966;8.230;2022-10-22T16:05:20;25.27;;;9.52;;
37609;SDS011;23457;51.966;8.230;2022-10-22T16:07:48;20.42;;;8.68;;
37609;SDS011;23457;51.966;8.230;2022-10-22T16:10:16;21.63;;;9.60;;
37609;SDS011;23457;51.966;8.230;2022-10-22T16:12:44;22.83;;;11.13;;
37609;SDS011;23457;51.966;8.230;2022-10-22T16:15:11;21.83;;;10.70;;
37609;SDS011;23457;51.966;8.230;2022-10-22T16:17:37;23.65;;;9.65;;
37609;SDS011;23457;51.966;8.230;2022-10-22T16:20:04;21.65;;;9.70;;
37609;SDS011;23457;51.966;8.230;2022-10-22T16:22:31;16.67;;;7.03;;
37609;SDS011;23457;51.966;8.230;2022-10-22T16:24:59;14.30;;;5.28;;
37609;SDS011;23457;51.966;8.230;2022-10-22T16:27:26;11.93;;;4.30;;
37609;SDS011;23457;51.966;8.230;2022-10-22T16:29:52;10.50;;;3.40;;
37609;SDS011;23457;51.966;8.230;2022-10-22T16:32:21;9.00;;;4.13;;
37609;SDS011;23457;51.966;8.230;2022-10-22T16:34:48;12.50;;;3.80;;
37609;SDS011;23457;51.966;8.230;2022-10-22T16:37:15;11.95;;;3.85;;
37609;SDS011;23457;51.966;8.230;2022-10-22T16:39:42;9.77;;;3.35;;
37609;SDS011;23457;51.966;8.230;2022-10-22T16:42:08;8.25;;;3.42;;
37609;SDS011;23457;51.966;8.230;2022-10-22T16:44:35;9.23;;;3.20;;
37609;SDS011;23457;51.966;8.230;2022-10-22T16:47:01;6.25;;;3.10;;
37609;SDS011;23457;51.966;8.230;2022-10-22T16:49:28;9.63;;;4.22;;
37609;SDS011;23457;51.966;8.230;2022-10-22T16:51:55;8.77;;;4.20;;